createdAt,value
2023-01-21T00:02:06.526Z,15.57
2023-01-21T00:07:10.148Z,17.80
2023-01-21T00:12:13.806Z,16.50
2023-01-21T00:17:17.725Z,13.53
2023-01-21T00:22:21.236Z,15.17
2023-01-21T00:27:26.615Z,10.67
2023-01-21T00:32:33.409Z,20.47
2023-01-21T00:37:37.134Z,15.90
2023-01-21T00:42:40.753Z,16.37
2023-01-21T00:47:44.699Z,12.07
2023-01-21T00:52:48.305Z,12.60
2023-01-21T00:57:53.647Z,19.57
2023-01-21T01:02:57.458Z,9.13
2023-01-21T01:08:01.724Z,18.30
2023-01-21T01:13:06.074Z,14.23
2023-01-21T01:18:11.554Z,12.50
2023-01-21T01:23:15.421Z,15.77
2023-01-21T01:28:19.446Z,12.77
2023-01-21T01:33:23.346Z,18.53
2023-01-21T01:38:27.425Z,17.53
2023-01-21T01:43:54.360Z,22.83
2023-01-21T01:49:20.786Z,21.30
2023-01-21T01:54:29.312Z,19.47
2023-01-21T01:59:33.851Z,19.20
2023-01-21T02:04:50.632Z,18.87
2023-01-21T02:09:55.285Z,13.47
2023-01-21T02:14:59.031Z,14.10
2023-01-21T02:20:25.973Z,9.70
2023-01-21T02:26:00.695Z,11.30
2023-01-21T02:31:33.144Z,12.50
2023-01-21T02:37:06.539Z,17.47
2023-01-21T02:42:28.715Z,7.77
2023-01-21T02:47:47.778Z,10.03
2023-01-21T02:53:03.597Z,14.70
2023-01-21T02:58:12.991Z,9.93
2023-01-21T03:03:35.828Z,11.40
2023-01-21T03:09:11.667Z,9.77
2023-01-21T03:14:40.295Z,10.13
2023-01-21T03:20:09.260Z,9.37
2023-01-21T03:25:18.193Z,5.97
2023-01-21T03:30:24.898Z,9.23
2023-01-21T03:35:36.740Z,5.13
2023-01-21T03:41:01.389Z,4.53
2023-01-21T03:46:17.779Z,9.93
2023-01-21T03:51:31.259Z,5.27
2023-01-21T03:56:35.207Z,4.67
2023-01-21T04:01:40.282Z,4.77
2023-01-21T04:06:47.757Z,3.50
2023-01-21T04:11:56.743Z,2.23
2023-01-21T04:17:00.596Z,3.37
2023-01-21T04:22:04.137Z,2.57
2023-01-21T04:27:07.507Z,3.73
2023-01-21T04:32:11.105Z,5.17
2023-01-21T04:37:14.442Z,4.03
2023-01-21T04:42:18.077Z,4.07
2023-01-21T04:47:21.687Z,4.40
2023-01-21T04:52:26.030Z,5.30
2023-01-21T04:57:30.017Z,2.90
2023-01-21T05:02:34.881Z,3.23
2023-01-21T05:07:38.762Z,3.13
2023-01-21T05:12:42.750Z,3.90
2023-01-21T05:17:52.698Z,3.90
2023-01-21T05:22:57.072Z,3.80
2023-01-21T05:28:07.309Z,1.60
2023-01-21T05:33:16.160Z,2.27
2023-01-21T05:38:23.593Z,2.77
2023-01-21T05:43:27.795Z,1.43
2023-01-21T05:48:32.792Z,3.27
2023-01-21T05:53:36.291Z,1.40
2023-01-21T05:58:51.258Z,1.27
2023-01-21T06:03:54.850Z,1.50
2023-01-21T06:08:58.869Z,1.90
2023-01-21T06:14:02.438Z,1.27
2023-01-21T06:19:06.455Z,1.03
2023-01-21T06:24:10.375Z,2.03
2023-01-21T06:29:14.185Z,1.63
2023-01-21T06:34:22.357Z,5.33
2023-01-21T06:39:28.860Z,3.03
2023-01-21T06:44:38.349Z,5.23
2023-01-21T06:49:42.267Z,2.97
2023-01-21T06:54:45.981Z,2.00
2023-01-21T06:59:50.458Z,3.77
2023-01-21T07:04:54.436Z,3.30
2023-01-21T07:09:58.448Z,14.67
2023-01-21T07:15:02.125Z,3.73
2023-01-21T07:20:06.502Z,2.43
2023-01-21T07:25:10.257Z,2.80
2023-01-21T07:30:21.079Z,2.93
2023-01-21T07:35:24.534Z,6.50
2023-01-21T07:40:28.270Z,3.13
2023-01-21T07:45:32.233Z,6.63
2023-01-21T07:50:36.002Z,4.63
2023-01-21T07:55:39.604Z,4.83
2023-01-21T08:00:43.530Z,6.70
2023-01-21T08:05:47.531Z,3.10
2023-01-21T08:10:56.006Z,3.20
2023-01-21T08:16:00.170Z,3.30
2023-01-21T08:21:04.549Z,3.50
2023-01-21T08:26:08.418Z,4.07
2023-01-21T08:31:14.309Z,4.13
2023-01-21T08:36:17.920Z,5.87
2023-01-21T08:41:21.839Z,5.27
2023-01-21T08:47:15.523Z,5.00
2023-01-21T08:52:24.308Z,3.43
2023-01-21T08:57:35.342Z,5.47
2023-01-21T09:03:05.937Z,6.17
2023-01-21T09:08:11.857Z,11.70
2023-01-21T09:14:13.420Z,4.00
2023-01-21T09:19:45.839Z,5.07
2023-01-21T09:25:12.698Z,4.83
2023-01-21T09:30:16.991Z,8.40
2023-01-21T09:35:20.798Z,2.33
2023-01-21T09:40:25.030Z,4.70
2023-01-21T09:45:29.188Z,4.50
2023-01-21T09:50:35.779Z,2.90
2023-01-21T09:55:48.009Z,5.53
2023-01-21T10:00:59.687Z,3.43
2023-01-21T10:06:26.597Z,3.17
2023-01-21T10:11:51.041Z,4.60
2023-01-21T10:16:54.664Z,4.83
2023-01-21T10:22:05.682Z,8.47
2023-01-21T10:27:15.500Z,2.33
2023-01-21T10:32:25.318Z,5.30
2023-01-21T10:37:35.320Z,3.53
2023-01-21T11:37:02.701Z,2.53
2023-01-21T11:42:27.694Z,2.83
2023-01-21T11:47:47.318Z,1.67
2023-01-21T11:53:17.538Z,0.77
2023-01-21T11:58:36.810Z,2.13
2023-01-21T12:03:57.809Z,1.90
2023-01-21T12:09:09.162Z,4.70
2023-01-21T12:14:40.255Z,3.03
2023-01-21T12:20:20.780Z,0.73
2023-01-21T12:26:02.107Z,2.33
2023-01-21T12:31:43.227Z,3.07
2023-01-21T12:36:56.674Z,2.13
2023-01-21T12:42:18.819Z,2.00
2023-01-21T12:47:26.665Z,1.70
2023-01-21T12:52:47.694Z,3.97
2023-01-21T12:58:04.115Z,3.10
2023-01-21T13:03:53.184Z,3.00
2023-01-21T13:09:31.733Z,3.23
2023-01-21T13:14:40.622Z,5.27
2023-01-21T13:19:44.784Z,3.23
2023-01-21T13:25:08.062Z,4.73
2023-01-21T13:30:40.412Z,3.17
2023-01-21T13:35:53.177Z,4.87
2023-01-21T13:41:11.951Z,2.77
2023-01-21T13:46:39.378Z,4.23
2023-01-21T13:51:59.815Z,6.13
2023-01-21T13:57:20.798Z,1.67
2023-01-21T14:02:38.535Z,4.80
2023-01-21T14:08:23.417Z,3.27
2023-01-21T14:13:45.833Z,3.17
2023-01-21T14:19:12.105Z,3.47
2023-01-21T14:24:27.742Z,4.77
2023-01-21T14:29:52.235Z,4.27
2023-01-21T14:35:05.195Z,3.43
2023-01-21T14:40:43.996Z,5.13
2023-01-21T14:45:59.940Z,5.73
2023-01-21T14:51:09.171Z,9.80
2023-01-21T14:56:24.818Z,2.77
2023-01-21T15:01:47.762Z,3.53
2023-01-21T15:06:55.028Z,4.50
2023-01-21T15:12:06.058Z,6.87
2023-01-21T15:17:43.806Z,3.33
2023-01-21T15:23:05.797Z,7.20
2023-01-21T15:28:44.001Z,8.93
2023-01-21T15:33:59.555Z,4.93
2023-01-21T15:39:17.710Z,7.37
2023-01-21T15:44:32.983Z,8.30
2023-01-21T15:49:53.352Z,6.83
2023-01-21T15:55:16.398Z,3.57
2023-01-21T16:01:22.737Z,6.00
2023-01-21T16:06:47.242Z,6.33
2023-01-21T16:12:01.918Z,7.83
2023-01-21T16:17:18.927Z,5.97
2023-01-21T16:22:27.784Z,8.07
2023-01-21T16:27:35.161Z,6.90
2023-01-21T16:32:39.525Z,7.30
2023-01-21T16:37:44.618Z,6.53
2023-01-21T16:42:48.784Z,5.20
2023-01-21T16:48:01.343Z,5.37
2023-01-21T16:53:09.251Z,5.10
2023-01-21T16:58:35.493Z,4.17
2023-01-21T17:03:40.156Z,4.13
2023-01-21T17:08:47.724Z,5.00
2023-01-21T17:13:52.384Z,6.60
2023-01-21T17:19:16.922Z,4.03
2023-01-21T17:24:28.587Z,7.00
2023-01-21T17:29:35.323Z,4.90
2023-01-21T17:34:41.190Z,4.90
2023-01-21T17:39:50.330Z,7.47
2023-01-21T17:44:59.793Z,5.90
2023-01-21T17:50:10.316Z,4.80
2023-01-21T17:55:27.508Z,5.33
2023-01-21T18:00:47.890Z,8.70
2023-01-21T18:05:54.657Z,5.03
2023-01-21T18:10:59.349Z,6.20
2023-01-21T18:16:03.582Z,7.00
2023-01-21T18:21:16.070Z,5.13
2023-01-21T18:26:30.063Z,7.17
2023-01-21T18:31:36.893Z,4.27
2023-01-21T18:36:42.407Z,6.33
